createdAt,value
2023-03-26T00:01:02.066Z,100196.09
2023-03-26T00:03:30.056Z,100184.47
2023-03-26T00:06:14.555Z,100183.72
2023-03-26T00:08:45.141Z,100184.75
2023-03-26T00:11:14.285Z,100140.28
2023-03-26T00:13:43.731Z,100073.53
2023-03-26T00:16:13.774Z,100043.00
2023-03-26T00:18:42.604Z,100026.66
2023-03-26T00:21:13.323Z,100010.69
2023-03-26T00:23:39.947Z,99988.03
2023-03-26T00:26:10.811Z,99971.06
2023-03-26T00:28:40.514Z,99952.25
2023-03-26T00:31:10.791Z,99936.88
2023-03-26T00:33:38.575Z,99924.34
2023-03-26T00:36:10.085Z,99911.59
2023-03-26T00:38:39.072Z,99900.06
2023-03-26T00:41:08.284Z,99886.06
2023-03-26T00:43:36.230Z,99865.63
2023-03-26T00:46:03.429Z,99855.34
2023-03-26T00:48:42.277Z,99856.75
2023-03-26T00:51:12.618Z,99841.78
2023-03-26T00:53:41.284Z,99822.50
2023-03-26T00:56:08.788Z,99818.88
2023-03-26T00:58:35.740Z,99803.50
2023-03-26T01:01:06.294Z,99793.81
2023-03-26T01:03:35.773Z,99784.31
2023-03-26T01:06:08.230Z,99766.28
2023-03-26T01:09:00.460Z,99764.50
2023-03-26T01:11:31.965Z,99746.06
2023-03-26T01:14:02.677Z,99731.09
2023-03-26T01:16:38.282Z,99727.84
2023-03-26T01:19:16.455Z,99719.94
2023-03-26T01:21:43.059Z,99714.06
2023-03-26T01:24:10.495Z,99717.13
2023-03-26T01:27:07.909Z,99707.19
2023-03-26T01:29:40.540Z,99701.31
2023-03-26T01:32:30.939Z,99695.84
2023-03-26T01:35:31.933Z,99692.63
2023-03-26T01:38:10.903Z,99706.22
2023-03-26T01:40:49.600Z,99705.59
2023-03-26T01:43:32.340Z,99702.97
2023-03-26T01:46:03.707Z,99707.44
2023-03-26T01:48:40.449Z,99700.97
2023-03-26T01:51:08.078Z,99709.72
2023-03-26T01:53:40.598Z,99703.59
2023-03-26T01:56:24.019Z,99716.38
2023-03-26T01:59:16.900Z,99719.03
2023-03-26T02:02:09.329Z,99722.69
2023-03-26T02:04:47.061Z,99722.50
2023-03-26T02:07:23.685Z,99722.06
2023-03-26T02:10:02.284Z,99726.75
2023-03-26T02:12:30.365Z,99723.47
2023-03-26T02:14:59.932Z,99737.09
2023-03-26T02:17:30.042Z,99735.69
2023-03-26T02:19:57.285Z,99737.88
2023-03-26T02:22:29.956Z,99735.03
2023-03-26T02:24:56.560Z,99732.97
2023-03-26T02:27:23.318Z,99739.06
2023-03-26T02:29:50.366Z,99725.06
2023-03-26T02:32:19.341Z,99725.06
2023-03-26T02:34:45.874Z,99713.31
2023-03-26T02:37:12.429Z,99707.22
2023-03-26T02:39:38.933Z,99699.28
2023-03-26T02:42:05.643Z,99690.81
2023-03-26T02:44:32.291Z,99681.44
2023-03-26T02:46:58.792Z,99678.44
2023-03-26T02:49:25.372Z,99688.59
2023-03-26T02:51:56.377Z,99678.22
2023-03-26T02:54:23.535Z,99672.94
2023-03-26T02:56:50.358Z,99678.44
2023-03-26T02:59:17.433Z,99677.81
2023-03-26T03:01:44.076Z,99669.28
2023-03-26T03:04:12.051Z,99663.81
2023-03-26T03:06:40.549Z,99658.94
2023-03-26T03:09:11.369Z,99649.59
2023-03-26T03:11:40.026Z,99650.22
2023-03-26T03:14:07.041Z,99650.00
2023-03-26T03:16:33.849Z,99645.16
2023-03-26T03:19:01.932Z,99640.47
2023-03-26T03:21:29.381Z,99626.06
2023-03-26T03:23:56.392Z,99624.03
2023-03-26T03:26:27.773Z,99607.41
2023-03-26T03:28:56.575Z,99600.69
2023-03-26T03:31:24.945Z,99582.25
2023-03-26T03:33:52.000Z,99573.34
2023-03-26T03:36:27.365Z,99555.09
2023-03-26T03:38:54.102Z,99548.19
2023-03-26T03:41:20.686Z,99540.06
2023-03-26T03:43:47.206Z,99526.47
2023-03-26T03:46:13.759Z,99514.31
2023-03-26T03:48:40.825Z,99498.09
2023-03-26T03:51:07.455Z,99488.75
2023-03-26T03:53:37.241Z,99485.31
2023-03-26T03:56:04.903Z,99472.94
2023-03-26T03:58:31.599Z,99460.97
2023-03-26T04:01:01.064Z,99449.03
2023-03-26T04:03:33.753Z,99426.50
2023-03-26T04:06:01.404Z,99399.75
2023-03-26T04:08:28.078Z,99365.69
2023-03-26T04:10:54.646Z,99321.91
2023-03-26T04:13:21.594Z,99286.22
2023-03-26T04:15:48.334Z,99261.72
2023-03-26T04:18:15.126Z,99114.34
2023-03-26T04:20:46.377Z,99079.03
2023-03-26T04:23:14.089Z,99039.94
2023-03-26T04:25:49.536Z,99025.97
2023-03-26T04:28:26.807Z,98986.06
2023-03-26T04:30:55.145Z,98974.94
2023-03-26T04:33:21.713Z,98793.53
2023-03-26T04:35:48.540Z,98782.44
2023-03-26T04:38:18.387Z,98760.34
2023-03-26T04:40:47.798Z,98742.69
2023-03-26T04:43:17.993Z,98732.94
2023-03-26T04:45:47.917Z,98676.50
2023-03-26T04:48:14.761Z,98661.06
2023-03-26T04:50:45.569Z,98666.06
2023-03-26T04:53:16.053Z,98667.75
2023-03-26T04:55:56.229Z,98648.72
2023-03-26T04:58:32.881Z,98633.03
2023-03-26T05:01:10.400Z,98630.75
2023-03-26T05:03:39.293Z,98633.03
2023-03-26T05:06:06.086Z,98626.59
2023-03-26T05:08:32.629Z,98613.78
2023-03-26T05:10:59.178Z,98598.78
2023-03-26T05:13:25.756Z,98579.53
2023-03-26T05:15:52.670Z,98565.56
2023-03-26T05:18:19.367Z,98558.13
2023-03-26T05:20:46.500Z,98552.84
2023-03-26T05:23:13.109Z,98536.69
2023-03-26T05:25:39.888Z,98519.84
2023-03-26T05:28:06.490Z,98510.38
2023-03-26T05:30:33.045Z,98487.91
2023-03-26T05:32:59.713Z,98485.84
2023-03-26T05:35:26.387Z,98468.47
2023-03-26T05:37:53.092Z,98446.13
2023-03-26T05:40:20.244Z,98451.16
2023-03-26T05:42:47.385Z,98444.88
2023-03-26T05:45:15.833Z,98460.22
2023-03-26T05:47:42.886Z,98439.50
2023-03-26T05:50:10.378Z,98441.88
2023-03-26T05:52:37.084Z,98431.13
2023-03-26T05:55:04.174Z,98420.94
2023-03-26T05:57:31.221Z,98421.72
2023-03-26T05:59:57.894Z,98410.16
2023-03-26T06:02:24.503Z,98405.69
2023-03-26T06:04:51.316Z,98403.84
2023-03-26T06:07:19.845Z,98387.47
2023-03-26T06:09:46.729Z,98389.56
2023-03-26T06:12:13.787Z,98391.84
2023-03-26T06:14:42.789Z,98372.94
2023-03-26T06:17:10.306Z,98373.88
2023-03-26T06:19:37.190Z,98366.97
2023-03-26T06:22:04.485Z,98363.00
2023-03-26T06:24:31.382Z,98356.09
2023-03-26T06:26:57.953Z,98336.41
2023-03-26T06:29:25.426Z,98347.28
2023-03-26T06:31:51.955Z,98333.56
2023-03-26T06:34:18.574Z,98328.84
2023-03-26T06:36:45.178Z,98318.56
2023-03-26T06:39:11.894Z,98318.44
2023-03-26T06:41:38.457Z,98308.03
2023-03-26T06:44:05.167Z,98305.84
2023-03-26T06:46:31.739Z,98305.59
2023-03-26T06:48:58.408Z,98309.88
2023-03-26T06:51:25.159Z,98313.06
2023-03-26T06:53:51.783Z,98296.81
2023-03-26T06:56:18.303Z,98292.00
2023-03-26T06:58:44.783Z,98282.25
2023-03-26T07:01:11.469Z,98277.22
2023-03-26T07:03:38.053Z,98284.22
2023-03-26T07:06:04.943Z,98282.38
2023-03-26T07:08:31.677Z,98256.53
2023-03-26T07:10:58.772Z,98263.28
2023-03-26T07:13:25.347Z,98249.88
2023-03-26T07:15:51.990Z,98253.38
2023-03-26T07:18:18.681Z,98249.97
2023-03-26T07:20:46.114Z,98244.56
2023-03-26T07:23:15.545Z,98242.81
2023-03-26T07:25:42.417Z,98231.13
2023-03-26T07:28:12.411Z,98222.84
2023-03-26T07:31:20.560Z,98214.69
2023-03-26T07:33:59.127Z,98209.53
2023-03-26T07:36:32.830Z,98203.28
2023-03-26T07:39:07.656Z,98197.34
2023-03-26T07:41:51.074Z,98181.38
2023-03-26T07:44:27.641Z,98175.38
2023-03-26T07:46:54.754Z,98164.59
2023-03-26T07:49:21.729Z,98154.13
2023-03-26T07:51:49.186Z,98134.78
2023-03-26T07:54:16.178Z,98141.41
2023-03-26T07:57:06.452Z,98135.44
2023-03-26T07:59:49.770Z,98124.78
2023-03-26T08:02:28.968Z,98142.69
2023-03-26T08:05:10.750Z,98143.56
2023-03-26T08:07:53.281Z,98142.56
2023-03-26T08:10:31.851Z,98147.56
2023-03-26T08:13:10.444Z,98141.25
2023-03-26T08:16:16.582Z,98133.75
2023-03-26T08:19:00.564Z,98126.56
2023-03-26T08:21:31.803Z,98129.91
2023-03-26T08:24:24.536Z,98123.63
2023-03-26T08:27:23.578Z,98120.66
2023-03-26T08:30:02.159Z,98127.44
2023-03-26T08:32:29.205Z,98128.66
2023-03-26T08:34:57.652Z,98133.75
2023-03-26T08:37:24.234Z,98124.38
2023-03-26T08:39:51.771Z,98127.91
2023-03-26T08:42:30.237Z,98138.78
2023-03-26T08:45:21.828Z,98137.81
2023-03-26T08:48:13.128Z,98142.31
2023-03-26T08:50:51.874Z,98132.31
2023-03-26T08:53:38.317Z,98143.09
2023-03-26T08:56:31.330Z,98139.69
2023-03-26T08:59:12.883Z,98155.47
2023-03-26T09:01:46.071Z,98148.03
2023-03-26T09:04:24.916Z,98158.28
2023-03-26T09:07:28.903Z,98163.06
2023-03-26T09:10:03.978Z,98170.78
2023-03-26T09:12:51.794Z,98186.44
2023-03-26T09:15:47.062Z,98194.25
2023-03-26T09:19:06.811Z,98206.47
2023-03-26T09:21:39.152Z,98198.31
2023-03-26T09:24:27.765Z,98205.44
2023-03-26T09:27:15.644Z,98209.28
2023-03-26T09:29:54.021Z,98208.56
2023-03-26T09:32:58.575Z,98202.16
2023-03-26T09:35:53.190Z,98200.72
2023-03-26T09:38:51.802Z,98201.94
2023-03-26T09:41:38.534Z,98195.16
2023-03-26T09:44:51.090Z,98190.53
2023-03-26T09:47:45.795Z,98225.44
2023-03-26T09:50:41.743Z,98214.03
2023-03-26T09:53:14.212Z,98230.03
2023-03-26T09:55:51.314Z,98232.25
2023-03-26T09:58:31.622Z,98240.50
2023-03-26T10:01:29.696Z,98257.56
2023-03-26T10:04:21.291Z,98255.34
2023-03-26T10:06:53.606Z,98253.97
2023-03-26T10:09:23.034Z,98259.13
2023-03-26T10:12:21.644Z,98266.06
2023-03-26T10:15:09.886Z,98278.28
2023-03-26T10:17:56.150Z,98277.34
2023-03-26T10:20:28.786Z,98300.69
2023-03-26T10:23:09.781Z,98311.25
2023-03-26T10:26:04.811Z,98317.72
2023-03-26T10:28:56.820Z,98326.53
2023-03-26T10:31:42.638Z,98346.03
2023-03-26T10:34:28.957Z,98356.28
2023-03-26T10:37:20.725Z,98361.66
2023-03-26T10:40:21.213Z,98385.47
2023-03-26T10:43:12.668Z,98392.41
2023-03-26T10:45:54.447Z,98405.94
2023-03-26T10:48:45.467Z,98421.28
2023-03-26T10:51:41.220Z,98430.78
2023-03-26T10:54:19.663Z,98444.53
2023-03-26T10:56:49.525Z,98442.34
2023-03-26T10:59:17.454Z,98441.50
2023-03-26T11:01:58.192Z,98441.88
2023-03-26T11:04:30.688Z,98454.16
2023-03-26T11:07:24.558Z,98461.19
2023-03-26T11:10:42.020Z,98461.38
2023-03-26T11:13:35.942Z,98468.41
2023-03-26T11:16:22.373Z,98461.84
2023-03-26T11:19:16.759Z,98465.47
2023-03-26T11:22:22.182Z,98455.91
2023-03-26T11:25:04.499Z,98459.41
2023-03-26T11:28:12.234Z,98455.06
2023-03-26T11:30:53.876Z,98462.66
2023-03-26T11:33:32.745Z,98466.25
2023-03-26T11:36:06.872Z,98485.94
2023-03-26T11:38:39.574Z,98489.13
2023-03-26T11:41:14.766Z,98493.44
2023-03-26T11:43:41.320Z,98495.31
2023-03-26T11:46:14.850Z,98503.38
2023-03-26T11:48:46.304Z,98516.47
2023-03-26T11:51:27.565Z,98524.06
2023-03-26T11:53:54.535Z,98523.59
2023-03-26T11:57:04.711Z,98552.03
2023-03-26T11:59:48.847Z,98555.50
2023-03-26T12:02:37.819Z,98570.03
2023-03-26T12:05:13.388Z,98596.88
2023-03-26T12:08:01.344Z,98603.00
2023-03-26T12:10:33.245Z,98605.28
2023-03-26T12:13:02.777Z,98609.53
2023-03-26T12:15:31.954Z,98625.06
2023-03-26T12:18:17.588Z,98622.78
2023-03-26T12:20:45.030Z,98621.53
2023-03-26T12:23:52.528Z,98620.41
2023-03-26T12:26:21.352Z,98611.25
2023-03-26T12:28:49.948Z,98593.16
2023-03-26T12:31:19.149Z,98592.41
2023-03-26T12:34:23.162Z,98581.78
2023-03-26T12:36:55.546Z,98576.31
2023-03-26T12:40:10.588Z,98574.34
2023-03-26T12:44:47.435Z,98577.81
2023-03-26T12:45:22.641Z,98580.16
2023-03-26T12:47:58.584Z,98582.09
2023-03-26T12:50:43.586Z,98596.28
2023-03-26T12:53:30.140Z,98598.91
2023-03-26T12:56:38.595Z,98600.34
2023-03-26T12:59:25.902Z,98613.50
2023-03-26T13:01:55.157Z,98617.50
2023-03-26T13:04:55.036Z,98629.38
2023-03-26T13:07:41.929Z,98660.34
2023-03-26T13:10:24.610Z,98668.47
2023-03-26T13:13:32.920Z,98695.88
2023-03-26T13:16:16.841Z,98707.34
2023-03-26T13:18:56.024Z,98728.53
2023-03-26T13:21:37.224Z,98741.66
2023-03-26T13:24:16.367Z,98753.09
2023-03-26T13:27:10.376Z,98758.63
2023-03-26T13:30:00.251Z,98772.06
2023-03-26T13:32:58.961Z,98788.22
2023-03-26T13:36:21.759Z,98796.28
2023-03-26T13:39:14.088Z,98822.63
2023-03-26T13:41:48.978Z,98848.53
2023-03-26T13:44:47.350Z,98864.50
2023-03-26T13:47:19.462Z,98865.16
2023-03-26T13:49:55.244Z,98884.59
2023-03-26T13:52:45.906Z,98916.88
2023-03-26T13:55:32.389Z,98938.66
2023-03-26T13:58:06.225Z,98946.75
2023-03-26T14:01:01.959Z,98955.03
2023-03-26T14:03:53.019Z,99001.81
2023-03-26T14:06:34.599Z,98994.06
2023-03-26T14:09:09.302Z,99012.28
2023-03-26T14:11:49.002Z,99025.75
2023-03-26T14:14:39.115Z,99046.38
2023-03-26T14:17:26.384Z,99065.78
2023-03-26T14:20:22.679Z,99085.53
2023-03-26T14:23:12.830Z,99095.56
2023-03-26T14:25:50.308Z,99093.44
2023-03-26T14:28:39.770Z,99082.97
2023-03-26T14:31:29.101Z,99092.72
2023-03-26T14:34:19.149Z,99096.66
2023-03-26T14:37:07.332Z,99089.34
2023-03-26T14:39:57.371Z,99098.13
2023-03-26T14:42:43.523Z,99118.94
2023-03-26T14:45:34.316Z,99131.41
2023-03-26T14:48:43.600Z,99142.94
2023-03-26T14:51:34.756Z,99150.88
2023-03-26T14:54:12.504Z,99145.50
2023-03-26T14:57:00.986Z,99168.59
2023-03-26T14:59:39.846Z,99175.47
2023-03-26T15:02:47.125Z,99181.84
2023-03-26T15:05:37.960Z,99182.88
2023-03-26T15:08:34.236Z,99183.78
2023-03-26T15:11:20.970Z,99192.34
2023-03-26T15:13:59.661Z,99180.63
2023-03-26T15:16:47.415Z,99196.84
2023-03-26T15:19:36.724Z,99205.47
2023-03-26T15:22:18.381Z,99226.44
2023-03-26T15:25:16.904Z,99246.78
2023-03-26T15:28:02.319Z,99262.31
2023-03-26T15:31:09.956Z,99275.88
2023-03-26T15:34:00.545Z,99285.38
2023-03-26T15:36:41.458Z,99311.16
2023-03-26T15:40:07.631Z,99327.59
2023-03-26T15:43:11.734Z,99368.09
2023-03-26T15:45:53.990Z,99396.59
2023-03-26T15:48:40.992Z,99420.63
2023-03-26T15:51:26.174Z,99446.84
2023-03-26T15:54:06.364Z,99469.16
2023-03-26T15:56:57.998Z,99485.16
2023-03-26T15:59:43.278Z,99489.59
2023-03-26T16:02:16.493Z,99502.19
2023-03-26T16:04:57.402Z,99517.38
2023-03-26T16:07:47.272Z,99534.19
2023-03-26T16:10:29.713Z,99540.28
2023-03-26T16:13:17.066Z,99571.50
2023-03-26T16:15:51.746Z,99567.25
2023-03-26T16:18:28.461Z,99622.59
2023-03-26T16:21:01.883Z,99675.88
2023-03-26T16:23:47.878Z,99733.06
2023-03-26T16:26:43.785Z,99915.91
2023-03-26T16:29:24.760Z,100043.03
2023-03-26T16:32:11.284Z,100151.72
2023-03-26T16:35:02.104Z,100238.44
2023-03-26T16:37:32.196Z,100277.13
2023-03-26T16:40:23.683Z,100298.59
2023-03-26T16:43:06.494Z,100307.69
2023-03-26T16:46:08.030Z,100295.13
2023-03-26T16:48:51.238Z,100241.97
2023-03-26T16:51:43.298Z,100148.31
2023-03-26T16:54:27.040Z,100126.03
2023-03-26T16:57:23.057Z,100145.69
2023-03-26T17:00:08.191Z,100163.66
2023-03-26T17:02:51.257Z,100171.97
2023-03-26T17:05:21.244Z,100200.19
2023-03-26T17:08:36.468Z,100193.47
2023-03-26T17:11:21.057Z,100176.09
2023-03-26T17:14:01.195Z,100209.84
2023-03-26T17:16:34.134Z,100210.75
2023-03-26T17:19:21.548Z,100244.97
2023-03-26T17:22:01.403Z,100287.25
2023-03-26T17:24:54.535Z,100299.78
2023-03-26T17:27:51.898Z,100342.84
2023-03-26T17:30:56.379Z,100375.78
2023-03-26T17:33:26.900Z,100414.56
2023-03-26T17:36:11.686Z,100428.19
2023-03-26T17:38:45.407Z,100436.00
2023-03-26T17:41:14.780Z,100433.47
2023-03-26T17:43:50.116Z,100448.91
2023-03-26T17:46:39.430Z,100462.06
2023-03-26T17:49:20.375Z,100471.56
2023-03-26T17:51:58.186Z,100482.09
2023-03-26T17:54:41.441Z,100504.34
2023-03-26T17:57:25.598Z,100521.09
2023-03-26T17:59:57.781Z,100546.56
2023-03-26T18:02:42.343Z,100543.00
2023-03-26T18:05:12.490Z,100567.28
2023-03-26T18:07:58.553Z,100578.81
2023-03-26T18:10:39.174Z,100597.22
2023-03-26T18:13:09.850Z,100625.81
2023-03-26T18:15:45.346Z,100631.06
2023-03-26T18:18:22.345Z,100644.06
2023-03-26T18:20:51.289Z,100654.75
2023-03-26T18:23:23.957Z,100664.44
2023-03-26T18:25:57.568Z,100672.34
2023-03-26T18:28:41.158Z,100684.50
2023-03-26T18:31:18.761Z,100703.88
2023-03-26T18:33:47.825Z,100707.34
2023-03-26T18:36:16.230Z,100716.50
2023-03-26T18:38:43.225Z,100725.50
2023-03-26T18:41:22.845Z,100740.75
2023-03-26T18:43:49.661Z,100740.22
2023-03-26T18:46:17.030Z,100757.41
2023-03-26T18:48:44.224Z,100763.09
2023-03-26T18:51:11.124Z,100768.16
2023-03-26T18:53:41.332Z,100766.28
2023-03-26T18:56:31.707Z,100749.06
2023-03-26T18:59:00.297Z,100738.75
2023-03-26T19:01:32.925Z,100736.00
2023-03-26T19:04:04.048Z,100715.38
2023-03-26T19:06:36.108Z,100705.06
2023-03-26T19:09:19.652Z,100715.31
2023-03-26T19:11:57.270Z,100714.47
2023-03-26T19:14:25.333Z,100738.13
2023-03-26T19:17:03.560Z,100756.16
2023-03-26T19:19:33.769Z,100770.72
2023-03-26T19:22:01.619Z,100777.28
2023-03-26T19:24:28.305Z,100787.50
2023-03-26T19:26:54.935Z,100801.31
2023-03-26T19:29:29.082Z,100813.00
2023-03-26T19:32:21.169Z,100803.78
2023-03-26T19:34:48.583Z,100798.50
2023-03-26T19:37:26.554Z,100792.41
2023-03-26T19:40:00.371Z,100785.78
2023-03-26T19:42:43.838Z,100788.41
2023-03-26T19:45:18.106Z,100799.91
2023-03-26T19:47:52.108Z,100802.88
2023-03-26T19:50:24.894Z,100815.63
2023-03-26T19:53:15.298Z,100828.94
2023-03-26T19:55:54.329Z,100845.28
2023-03-26T19:58:21.355Z,100840.66
2023-03-26T20:00:47.899Z,100848.34
2023-03-26T20:03:16.653Z,100849.41
2023-03-26T20:05:43.463Z,100839.22
2023-03-26T20:08:14.681Z,100842.53
2023-03-26T20:10:42.901Z,100847.44
2023-03-26T20:13:15.150Z,100852.38
2023-03-26T20:15:45.572Z,100853.06
2023-03-26T20:18:12.446Z,100844.19
2023-03-26T20:20:41.184Z,100831.44
2023-03-26T20:23:14.433Z,100849.97
2023-03-26T20:25:49.184Z,100853.06
2023-03-26T20:28:19.218Z,100866.72
2023-03-26T20:30:48.063Z,100873.44
2023-03-26T20:33:26.661Z,100888.59
2023-03-26T20:35:57.565Z,100907.81
2023-03-26T20:38:38.936Z,100920.41
2023-03-26T20:41:09.683Z,100932.97
2023-03-26T20:43:36.601Z,100947.66
2023-03-26T20:46:04.015Z,100952.06
2023-03-26T20:48:30.589Z,100957.84
2023-03-26T20:50:57.151Z,100959.06
2023-03-26T20:53:24.082Z,100960.81
2023-03-26T20:55:51.647Z,100972.25
2023-03-26T20:58:30.976Z,100984.28
2023-03-26T21:01:01.125Z,100995.91
2023-03-26T21:03:27.762Z,101009.56
2023-03-26T21:05:54.333Z,101019.84
2023-03-26T21:08:22.364Z,101026.44
2023-03-26T21:10:49.775Z,101028.25
2023-03-26T21:13:36.746Z,101036.34
2023-03-26T21:16:04.322Z,101019.78
2023-03-26T21:18:31.315Z,101008.16
2023-03-26T21:21:18.183Z,101002.16
2023-03-26T21:23:59.299Z,101003.75
2023-03-26T21:26:41.796Z,100991.34
2023-03-26T21:29:08.799Z,100992.09
2023-03-26T21:31:37.788Z,100988.16
2023-03-26T21:34:05.555Z,100987.91
2023-03-26T21:36:32.558Z,100992.31
2023-03-26T21:38:59.880Z,101006.34
2023-03-26T21:41:41.298Z,101008.22
2023-03-26T21:44:08.531Z,101024.22
2023-03-26T21:46:35.761Z,101015.97
2023-03-26T21:49:02.636Z,101014.97
2023-03-26T21:51:29.585Z,101024.44
2023-03-26T21:53:56.353Z,101021.78
2023-03-26T21:56:33.080Z,101045.94
2023-03-26T21:59:21.594Z,101086.72
2023-03-26T22:02:15.616Z,101113.59
2023-03-26T22:04:56.764Z,101145.09
2023-03-26T22:07:30.648Z,101161.44
2023-03-26T22:09:57.412Z,101181.38
2023-03-26T22:12:25.619Z,101199.50
2023-03-26T22:14:52.536Z,101202.88
2023-03-26T22:17:19.773Z,101220.91
2023-03-26T22:19:46.341Z,101212.78
2023-03-26T22:22:12.882Z,101207.72
2023-03-26T22:24:39.513Z,101181.09
2023-03-26T22:27:07.755Z,101182.09
2023-03-26T22:29:34.284Z,101163.56
2023-03-26T22:32:00.894Z,101162.84
2023-03-26T22:34:27.410Z,101170.97
2023-03-26T22:36:53.992Z,101172.47
2023-03-26T22:39:20.908Z,101176.59
2023-03-26T22:41:47.443Z,101173.13
2023-03-26T22:46:47.395Z,101180.66
2023-03-26T22:49:13.958Z,101185.91
2023-03-26T22:51:40.507Z,101185.22
2023-03-26T22:54:07.634Z,101183.47
2023-03-26T22:56:34.222Z,101188.44
2023-03-26T22:59:01.230Z,101188.44
2023-03-26T23:01:28.221Z,101177.78
2023-03-26T23:03:55.048Z,101182.19
2023-03-26T23:06:21.649Z,101182.19
2023-03-26T23:08:48.316Z,101196.16
2023-03-26T23:11:20.412Z,101192.03
2023-03-26T23:13:47.834Z,101197.78
2023-03-26T23:16:16.194Z,101202.94
2023-03-26T23:18:43.165Z,101208.84
2023-03-26T23:21:18.500Z,101215.22
2023-03-26T23:23:46.112Z,101219.91
2023-03-26T23:26:14.511Z,101215.91
2023-03-26T23:28:41.322Z,101231.25
2023-03-26T23:31:10.255Z,101231.72
2023-03-26T23:33:38.999Z,101229.53
2023-03-26T23:36:10.731Z,101234.22
2023-03-26T23:38:43.543Z,101235.47
2023-03-26T23:41:15.111Z,101238.38
2023-03-26T23:43:56.052Z,101231.63
2023-03-26T23:46:24.530Z,101230.09
2023-03-26T23:48:51.673Z,101233.00
2023-03-26T23:51:21.738Z,101225.19
2023-03-26T23:53:49.235Z,101232.78
2023-03-26T23:56:16.607Z,101231.69
2023-03-26T23:58:43.363Z,101240.47
